sensor_id;sensor_type;location;lat;lon;timestamp;P1;durP1;ratioP1;P2;durP2;ratioP2
21426;SDS011;10874;49.452;11.050;2024-01-30T00:01:07;11.20;;;6.60;;
21426;SDS011;10874;49.452;11.050;2024-01-30T00:03:34;7.90;;;6.40;;
21426;SDS011;10874;49.452;11.050;2024-01-30T00:06:02;9.83;;;7.00;;
21426;SDS011;10874;49.452;11.050;2024-01-30T00:08:29;10.50;;;6.80;;
21426;SDS011;10874;49.452;11.050;2024-01-30T00:10:56;11.57;;;7.43;;
21426;SDS011;10874;49.452;11.050;2024-01-30T00:13:23;10.77;;;7.13;;
21426;SDS011;10874;49.452;11.050;2024-01-30T00:15:50;10.13;;;6.27;;
21426;SDS011;10874;49.452;11.050;2024-01-30T00:18:17;11.77;;;7.30;;
21426;SDS011;10874;49.452;11.050;2024-01-30T00:20:45;12.43;;;7.17;;
21426;SDS011;10874;49.452;11.050;2024-01-30T00:23:12;12.03;;;7.73;;
21426;SDS011;10874;49.452;11.050;2024-01-30T00:25:39;11.17;;;7.47;;
21426;SDS011;10874;49.452;11.050;2024-01-30T00:28:05;10.03;;;6.87;;
21426;SDS011;10874;49.452;11.050;2024-01-30T00:30:32;10.73;;;6.80;;
21426;SDS011;10874;49.452;11.050;2024-01-30T00:32:59;13.53;;;7.73;;
21426;SDS011;10874;49.452;11.050;2024-01-30T00:35:26;12.17;;;7.50;;
21426;SDS011;10874;49.452;11.050;2024-01-30T00:37:53;9.23;;;6.47;;
21426;SDS011;10874;49.452;11.050;2024-01-30T00:40:20;10.33;;;6.80;;
21426;SDS011;10874;49.452;11.050;2024-01-30T00:42:47;8.83;;;6.30;;
21426;SDS011;10874;49.452;11.050;2024-01-30T00:45:14;9.97;;;6.60;;
21426;SDS011;10874;49.452;11.050;2024-01-30T00:47:41;8.87;;;6.30;;
21426;SDS011;10874;49.452;11.050;2024-01-30T00:50:08;11.60;;;6.30;;
21426;SDS011;10874;49.452;11.050;2024-01-30T00:52:35;9.27;;;6.40;;
21426;SDS011;10874;49.452;11.050;2024-01-30T00:55:02;8.03;;;6.13;;
21426;SDS011;10874;49.452;11.050;2024-01-30T00:57:30;8.13;;;5.50;;
21426;SDS011;10874;49.452;11.050;2024-01-30T00:59:57;8.83;;;5.80;;
21426;SDS011;10874;49.452;11.050;2024-01-30T01:02:24;8.53;;;5.60;;
21426;SDS011;10874;49.452;11.050;2024-01-30T01:04:50;8.07;;;5.90;;
21426;SDS011;10874;49.452;11.050;2024-01-30T01:07:17;9.13;;;5.70;;
21426;SDS011;10874;49.452;11.050;2024-01-30T01:09:44;9.50;;;5.47;;
21426;SDS011;10874;49.452;11.050;2024-01-30T01:12:10;7.30;;;5.70;;
21426;SDS011;10874;49.452;11.050;2024-01-30T01:14:37;7.27;;;5.07;;
21426;SDS011;10874;49.452;11.050;2024-01-30T01:17:04;7.77;;;5.17;;
21426;SDS011;10874;49.452;11.050;2024-01-30T01:19:31;6.77;;;5.20;;
21426;SDS011;10874;49.452;11.050;2024-01-30T01:21:58;8.43;;;5.63;;
21426;SDS011;10874;49.452;11.050;2024-01-30T01:24:25;8.37;;;5.20;;
21426;SDS011;10874;49.452;11.050;2024-01-30T01:26:51;10.53;;;6.10;;
21426;SDS011;10874;49.452;11.050;2024-01-30T01:29:18;7.67;;;5.77;;
21426;SDS011;10874;49.452;11.050;2024-01-30T01:31:45;7.57;;;5.03;;
21426;SDS011;10874;49.452;11.050;2024-01-30T01:34:13;6.57;;;5.37;;
21426;SDS011;10874;49.452;11.050;2024-01-30T01:36:40;8.50;;;5.83;;
21426;SDS011;10874;49.452;11.050;2024-01-30T01:39:06;10.33;;;6.43;;
21426;SDS011;10874;49.452;11.050;2024-01-30T01:41:35;9.30;;;5.50;;
21426;SDS011;10874;49.452;11.050;2024-01-30T01:44:01;7.30;;;5.50;;
21426;SDS011;10874;49.452;11.050;2024-01-30T01:46:30;8.33;;;6.17;;
21426;SDS011;10874;49.452;11.050;2024-01-30T01:48:57;8.77;;;5.83;;
21426;SDS011;10874;49.452;11.050;2024-01-30T01:51:24;9.03;;;6.07;;
21426;SDS011;10874;49.452;11.050;2024-01-30T01:53:53;6.43;;;4.87;;
21426;SDS011;10874;49.452;11.050;2024-01-30T01:56:20;6.93;;;5.50;;
21426;SDS011;10874;49.452;11.050;2024-01-30T01:58:47;7.20;;;5.20;;
21426;SDS011;10874;49.452;11.050;2024-01-30T02:01:14;6.87;;;5.17;;
21426;SDS011;10874;49.452;11.050;2024-01-30T02:03:41;7.70;;;4.70;;
21426;SDS011;10874;49.452;11.050;2024-01-30T02:06:08;6.97;;;5.03;;
21426;SDS011;10874;49.452;11.050;2024-01-30T02:08:36;8.63;;;4.57;;
21426;SDS011;10874;49.452;11.050;2024-01-30T02:11:03;8.57;;;4.93;;
21426;SDS011;10874;49.452;11.050;2024-01-30T02:13:30;5.60;;;4.50;;
21426;SDS011;10874;49.452;11.050;2024-01-30T02:15:57;7.63;;;5.17;;
21426;SDS011;10874;49.452;11.050;2024-01-30T02:18:24;5.23;;;4.20;;
21426;SDS011;10874;49.452;11.050;2024-01-30T02:20:51;6.30;;;4.70;;
21426;SDS011;10874;49.452;11.050;2024-01-30T02:23:20;5.97;;;4.60;;
21426;SDS011;10874;49.452;11.050;2024-01-30T02:25:47;6.17;;;4.37;;
21426;SDS011;10874;49.452;11.050;2024-01-30T02:28:14;5.23;;;4.13;;
21426;SDS011;10874;49.452;11.050;2024-01-30T02:30:44;6.20;;;4.50;;
21426;SDS011;10874;49.452;11.050;2024-01-30T02:33:11;5.57;;;4.00;;
21426;SDS011;10874;49.452;11.050;2024-01-30T02:35:37;6.33;;;4.60;;
21426;SDS011;10874;49.452;11.050;2024-01-30T02:38:04;5.97;;;4.50;;
21426;SDS011;10874;49.452;11.050;2024-01-30T02:40:31;6.03;;;4.67;;
21426;SDS011;10874;49.452;11.050;2024-01-30T02:42:59;5.20;;;4.37;;
21426;SDS011;10874;49.452;11.050;2024-01-30T02:45:26;6.27;;;4.67;;
21426;SDS011;10874;49.452;11.050;2024-01-30T02:47:53;5.93;;;4.97;;
21426;SDS011;10874;49.452;11.050;2024-01-30T02:50:20;7.40;;;4.70;;
21426;SDS011;10874;49.452;11.050;2024-01-30T02:52:48;6.00;;;4.57;;
21426;SDS011;10874;49.452;11.050;2024-01-30T02:55:15;7.83;;;5.53;;
21426;SDS011;10874;49.452;11.050;2024-01-30T02:57:44;6.13;;;4.80;;
21426;SDS011;10874;49.452;11.050;2024-01-30T03:00:11;6.53;;;5.00;;
21426;SDS011;10874;49.452;11.050;2024-01-30T03:02:38;8.13;;;4.97;;
21426;SDS011;10874;49.452;11.050;2024-01-30T03:05:05;7.20;;;4.50;;
21426;SDS011;10874;49.452;11.050;2024-01-30T03:07:32;8.03;;;5.10;;
21426;SDS011;10874;49.452;11.050;2024-01-30T03:10:00;7.13;;;5.20;;
21426;SDS011;10874;49.452;11.050;2024-01-30T03:12:27;6.47;;;5.37;;
21426;SDS011;10874;49.452;11.050;2024-01-30T03:14:54;7.13;;;5.03;;
21426;SDS011;10874;49.452;11.050;2024-01-30T03:17:21;7.23;;;4.87;;
21426;SDS011;10874;49.452;11.050;2024-01-30T03:19:48;8.70;;;5.63;;
21426;SDS011;10874;49.452;11.050;2024-01-30T03:22:15;8.90;;;5.20;;
21426;SDS011;10874;49.452;11.050;2024-01-30T03:24:41;5.13;;;4.63;;
21426;SDS011;10874;49.452;11.050;2024-01-30T03:27:08;6.83;;;4.83;;
21426;SDS011;10874;49.452;11.050;2024-01-30T03:29:35;6.37;;;5.20;;
21426;SDS011;10874;49.452;11.050;2024-01-30T03:32:02;8.07;;;4.97;;
21426;SDS011;10874;49.452;11.050;2024-01-30T03:34:30;6.47;;;4.97;;
21426;SDS011;10874;49.452;11.050;2024-01-30T03:36:57;6.73;;;5.33;;
21426;SDS011;10874;49.452;11.050;2024-01-30T03:39:24;7.87;;;4.73;;
21426;SDS011;10874;49.452;11.050;2024-01-30T03:41:51;7.93;;;5.27;;
21426;SDS011;10874;49.452;11.050;2024-01-30T03:44:18;6.10;;;4.80;;
21426;SDS011;10874;49.452;11.050;2024-01-30T03:46:45;9.80;;;5.53;;
21426;SDS011;10874;49.452;11.050;2024-01-30T03:49:12;5.80;;;4.70;;
21426;SDS011;10874;49.452;11.050;2024-01-30T03:51:39;6.30;;;4.87;;
21426;SDS011;10874;49.452;11.050;2024-01-30T03:54:06;8.73;;;5.73;;
21426;SDS011;10874;49.452;11.050;2024-01-30T03:56:33;9.33;;;6.10;;
21426;SDS011;10874;49.452;11.050;2024-01-30T03:59:00;8.00;;;5.73;;
21426;SDS011;10874;49.452;11.050;2024-01-30T04:01:29;5.13;;;4.60;;
21426;SDS011;10874;49.452;11.050;2024-01-30T04:03:56;6.30;;;5.23;;
21426;SDS011;10874;49.452;11.050;2024-01-30T04:06:23;6.47;;;5.10;;
21426;SDS011;10874;49.452;11.050;2024-01-30T04:08:50;6.70;;;5.30;;
21426;SDS011;10874;49.452;11.050;2024-01-30T04:11:18;6.30;;;5.00;;
21426;SDS011;10874;49.452;11.050;2024-01-30T04:13:45;7.07;;;5.20;;
21426;SDS011;10874;49.452;11.050;2024-01-30T04:16:22;6.07;;;4.73;;
21426;SDS011;10874;49.452;11.050;2024-01-30T04:18:50;7.37;;;5.27;;
21426;SDS011;10874;49.452;11.050;2024-01-30T04:21:17;7.83;;;5.20;;
21426;SDS011;10874;49.452;11.050;2024-01-30T04:23:44;10.83;;;5.80;;
21426;SDS011;10874;49.452;11.050;2024-01-30T04:26:11;6.57;;;5.50;;
21426;SDS011;10874;49.452;11.050;2024-01-30T04:28:37;9.13;;;5.80;;
21426;SDS011;10874;49.452;11.050;2024-01-30T04:31:04;6.27;;;5.60;;
21426;SDS011;10874;49.452;11.050;2024-01-30T04:33:31;7.73;;;6.23;;
21426;SDS011;10874;49.452;11.050;2024-01-30T04:35:58;8.77;;;6.40;;
21426;SDS011;10874;49.452;11.050;2024-01-30T04:38:24;7.93;;;5.27;;
21426;SDS011;10874;49.452;11.050;2024-01-30T04:40:51;8.73;;;6.03;;
21426;SDS011;10874;49.452;11.050;2024-01-30T04:43:18;7.97;;;5.67;;
21426;SDS011;10874;49.452;11.050;2024-01-30T04:45:45;7.20;;;5.13;;
21426;SDS011;10874;49.452;11.050;2024-01-30T04:48:12;6.47;;;5.17;;
21426;SDS011;10874;49.452;11.050;2024-01-30T04:50:39;9.00;;;5.47;;
21426;SDS011;10874;49.452;11.050;2024-01-30T04:53:06;9.40;;;5.60;;
21426;SDS011;10874;49.452;11.050;2024-01-30T04:55:34;6.80;;;5.43;;
21426;SDS011;10874;49.452;11.050;2024-01-30T04:58:02;8.83;;;5.83;;
21426;SDS011;10874;49.452;11.050;2024-01-30T05:00:29;7.73;;;5.87;;
21426;SDS011;10874;49.452;11.050;2024-01-30T05:02:55;9.37;;;6.10;;
21426;SDS011;10874;49.452;11.050;2024-01-30T05:05:22;9.13;;;5.77;;
21426;SDS011;10874;49.452;11.050;2024-01-30T05:07:49;7.10;;;6.10;;
21426;SDS011;10874;49.452;11.050;2024-01-30T05:10:16;9.00;;;6.47;;
21426;SDS011;10874;49.452;11.050;2024-01-30T05:12:42;9.93;;;6.40;;
21426;SDS011;10874;49.452;11.050;2024-01-30T05:15:09;10.20;;;6.50;;
21426;SDS011;10874;49.452;11.050;2024-01-30T05:17:36;7.73;;;6.13;;
21426;SDS011;10874;49.452;11.050;2024-01-30T05:20:03;9.30;;;6.20;;
21426;SDS011;10874;49.452;11.050;2024-01-30T05:22:31;9.43;;;6.53;;
21426;SDS011;10874;49.452;11.050;2024-01-30T05:24:58;11.87;;;7.33;;
21426;SDS011;10874;49.452;11.050;2024-01-30T05:27:25;8.70;;;6.80;;
21426;SDS011;10874;49.452;11.050;2024-01-30T05:29:51;7.37;;;6.07;;
21426;SDS011;10874;49.452;11.050;2024-01-30T05:32:18;7.23;;;6.00;;
21426;SDS011;10874;49.452;11.050;2024-01-30T05:34:45;10.13;;;6.47;;
21426;SDS011;10874;49.452;11.050;2024-01-30T05:37:12;9.43;;;6.10;;
21426;SDS011;10874;49.452;11.050;2024-01-30T05:39:43;8.27;;;6.80;;
21426;SDS011;10874;49.452;11.050;2024-01-30T05:42:10;9.27;;;6.90;;
21426;SDS011;10874;49.452;11.050;2024-01-30T05:44:36;10.93;;;5.97;;
21426;SDS011;10874;49.452;11.050;2024-01-30T05:47:03;8.57;;;6.47;;
21426;SDS011;10874;49.452;11.050;2024-01-30T05:49:30;9.30;;;6.87;;
21426;SDS011;10874;49.452;11.050;2024-01-30T05:51:57;8.93;;;6.57;;
21426;SDS011;10874;49.452;11.050;2024-01-30T05:54:24;12.53;;;7.67;;
21426;SDS011;10874;49.452;11.050;2024-01-30T05:56:51;10.20;;;6.17;;
21426;SDS011;10874;49.452;11.050;2024-01-30T05:59:17;12.57;;;7.00;;
21426;SDS011;10874;49.452;11.050;2024-01-30T06:01:47;10.47;;;6.93;;
21426;SDS011;10874;49.452;11.050;2024-01-30T06:04:15;10.13;;;7.27;;
21426;SDS011;10874;49.452;11.050;2024-01-30T06:06:42;10.63;;;7.20;;
21426;SDS011;10874;49.452;11.050;2024-01-30T06:09:09;11.03;;;7.50;;
21426;SDS011;10874;49.452;11.050;2024-01-30T06:11:35;10.30;;;7.37;;
21426;SDS011;10874;49.452;11.050;2024-01-30T06:14:02;9.10;;;7.20;;
21426;SDS011;10874;49.452;11.050;2024-01-30T06:16:29;10.93;;;7.03;;
21426;SDS011;10874;49.452;11.050;2024-01-30T06:18:56;11.50;;;8.10;;
21426;SDS011;10874;49.452;11.050;2024-01-30T06:21:23;9.43;;;7.47;;
21426;SDS011;10874;49.452;11.050;2024-01-30T06:23:50;9.87;;;7.63;;
21426;SDS011;10874;49.452;11.050;2024-01-30T06:26:17;10.10;;;8.27;;
21426;SDS011;10874;49.452;11.050;2024-01-30T06:28:43;10.90;;;7.93;;
21426;SDS011;10874;49.452;11.050;2024-01-30T06:31:11;9.93;;;7.83;;
21426;SDS011;10874;49.452;11.050;2024-01-30T06:33:37;11.07;;;8.10;;
21426;SDS011;10874;49.452;11.050;2024-01-30T06:36:04;14.07;;;8.20;;
21426;SDS011;10874;49.452;11.050;2024-01-30T06:38:31;10.73;;;8.87;;
21426;SDS011;10874;49.452;11.050;2024-01-30T06:40:58;14.53;;;8.47;;
21426;SDS011;10874;49.452;11.050;2024-01-30T06:43:24;11.97;;;8.83;;
21426;SDS011;10874;49.452;11.050;2024-01-30T06:45:51;14.30;;;9.07;;
21426;SDS011;10874;49.452;11.050;2024-01-30T06:48:18;11.40;;;9.53;;
21426;SDS011;10874;49.452;11.050;2024-01-30T06:50:45;15.20;;;9.00;;
21426;SDS011;10874;49.452;11.050;2024-01-30T06:53:12;12.73;;;8.57;;
21426;SDS011;10874;49.452;11.050;2024-01-30T06:55:39;12.17;;;8.97;;
21426;SDS011;10874;49.452;11.050;2024-01-30T06:58:06;12.23;;;9.37;;
21426;SDS011;10874;49.452;11.050;2024-01-30T07:00:33;13.07;;;9.13;;
21426;SDS011;10874;49.452;11.050;2024-01-30T07:03:00;13.43;;;9.40;;
21426;SDS011;10874;49.452;11.050;2024-01-30T07:05:26;13.17;;;9.33;;
21426;SDS011;10874;49.452;11.050;2024-01-30T07:07:53;14.37;;;9.83;;
21426;SDS011;10874;49.452;11.050;2024-01-30T07:10:20;13.03;;;10.40;;
21426;SDS011;10874;49.452;11.050;2024-01-30T07:12:47;13.67;;;9.80;;
21426;SDS011;10874;49.452;11.050;2024-01-30T07:15:14;13.43;;;9.73;;
21426;SDS011;10874;49.452;11.050;2024-01-30T07:17:43;15.40;;;9.47;;
21426;SDS011;10874;49.452;11.050;2024-01-30T07:20:10;13.77;;;10.03;;
21426;SDS011;10874;49.452;11.050;2024-01-30T07:22:43;12.33;;;9.37;;
21426;SDS011;10874;49.452;11.050;2024-01-30T07:25:10;15.57;;;10.53;;
21426;SDS011;10874;49.452;11.050;2024-01-30T07:27:37;14.63;;;10.20;;
21426;SDS011;10874;49.452;11.050;2024-01-30T07:30:04;14.20;;;11.10;;
21426;SDS011;10874;49.452;11.050;2024-01-30T07:32:31;13.30;;;10.37;;
21426;SDS011;10874;49.452;11.050;2024-01-30T07:34:58;14.87;;;11.07;;
21426;SDS011;10874;49.452;11.050;2024-01-30T07:37:34;14.93;;;10.57;;
21426;SDS011;10874;49.452;11.050;2024-01-30T07:40:02;12.33;;;9.83;;
21426;SDS011;10874;49.452;11.050;2024-01-30T07:42:29;13.03;;;10.27;;
21426;SDS011;10874;49.452;11.050;2024-01-30T07:44:56;18.50;;;10.87;;
21426;SDS011;10874;49.452;11.050;2024-01-30T07:47:23;17.17;;;11.23;;
21426;SDS011;10874;49.452;11.050;2024-01-30T07:49:50;14.87;;;11.13;;
21426;SDS011;10874;49.452;11.050;2024-01-30T07:52:18;14.63;;;11.57;;
21426;SDS011;10874;49.452;11.050;2024-01-30T07:54:48;15.20;;;11.60;;
21426;SDS011;10874;49.452;11.050;2024-01-30T07:57:14;17.00;;;11.23;;
21426;SDS011;10874;49.452;11.050;2024-01-30T07:59:42;18.73;;;11.50;;
21426;SDS011;10874;49.452;11.050;2024-01-30T08:02:08;15.93;;;11.40;;
21426;SDS011;10874;49.452;11.050;2024-01-30T08:04:35;19.20;;;11.20;;
21426;SDS011;10874;49.452;11.050;2024-01-30T08:07:02;14.70;;;11.67;;
21426;SDS011;10874;49.452;11.050;2024-01-30T08:09:29;16.53;;;11.43;;
21426;SDS011;10874;49.452;11.050;2024-01-30T08:11:56;18.43;;;12.20;;
21426;SDS011;10874;49.452;11.050;2024-01-30T08:14:23;17.20;;;11.27;;
21426;SDS011;10874;49.452;11.050;2024-01-30T08:16:50;15.67;;;11.30;;
21426;SDS011;10874;49.452;11.050;2024-01-30T08:19:16;19.73;;;12.60;;
21426;SDS011;10874;49.452;11.050;2024-01-30T08:21:43;14.47;;;11.13;;
21426;SDS011;10874;49.452;11.050;2024-01-30T08:24:10;16.87;;;12.03;;
21426;SDS011;10874;49.452;11.050;2024-01-30T08:26:37;14.60;;;10.87;;
21426;SDS011;10874;49.452;11.050;2024-01-30T08:29:05;15.67;;;12.40;;
21426;SDS011;10874;49.452;11.050;2024-01-30T08:31:32;16.23;;;11.73;;
21426;SDS011;10874;49.452;11.050;2024-01-30T08:33:58;18.33;;;12.47;;
21426;SDS011;10874;49.452;11.050;2024-01-30T08:36:25;17.70;;;11.47;;
21426;SDS011;10874;49.452;11.050;2024-01-30T08:38:52;14.80;;;11.60;;
21426;SDS011;10874;49.452;11.050;2024-01-30T08:41:24;16.37;;;12.43;;
21426;SDS011;10874;49.452;11.050;2024-01-30T08:43:52;18.80;;;12.77;;
21426;SDS011;10874;49.452;11.050;2024-01-30T08:46:19;17.33;;;11.63;;
21426;SDS011;10874;49.452;11.050;2024-01-30T08:48:46;18.27;;;12.50;;
21426;SDS011;10874;49.452;11.050;2024-01-30T08:51:14;14.23;;;11.50;;
21426;SDS011;10874;49.452;11.050;2024-01-30T08:53:42;17.40;;;12.10;;
21426;SDS011;10874;49.452;11.050;2024-01-30T08:56:09;14.97;;;12.37;;
21426;SDS011;10874;49.452;11.050;2024-01-30T08:58:36;17.53;;;11.77;;
21426;SDS011;10874;49.452;11.050;2024-01-30T09:01:03;14.73;;;12.10;;
21426;SDS011;10874;49.452;11.050;2024-01-30T09:03:32;13.67;;;11.10;;
21426;SDS011;10874;49.452;11.050;2024-01-30T09:05:59;14.63;;;12.37;;
21426;SDS011;10874;49.452;11.050;2024-01-30T09:08:25;17.63;;;12.50;;
21426;SDS011;10874;49.452;11.050;2024-01-30T09:10:52;15.80;;;11.97;;
21426;SDS011;10874;49.452;11.050;2024-01-30T09:13:21;18.50;;;11.83;;
21426;SDS011;10874;49.452;11.050;2024-01-30T09:15:48;20.90;;;12.33;;
21426;SDS011;10874;49.452;11.050;2024-01-30T09:18:15;15.07;;;11.93;;
21426;SDS011;10874;49.452;11.050;2024-01-30T09:20:42;14.50;;;11.17;;
21426;SDS011;10874;49.452;11.050;2024-01-30T09:23:09;21.40;;;12.57;;
21426;SDS011;10874;49.452;11.050;2024-01-30T09:25:35;15.73;;;12.30;;
21426;SDS011;10874;49.452;11.050;2024-01-30T09:28:02;16.83;;;12.20;;
21426;SDS011;10874;49.452;11.050;2024-01-30T09:30:29;15.80;;;11.97;;
21426;SDS011;10874;49.452;11.050;2024-01-30T09:32:56;16.90;;;12.20;;
21426;SDS011;10874;49.452;11.050;2024-01-30T09:35:23;14.87;;;11.53;;
21426;SDS011;10874;49.452;11.050;2024-01-30T09:37:50;16.33;;;11.87;;
21426;SDS011;10874;49.452;11.050;2024-01-30T09:40:18;18.70;;;11.33;;
21426;SDS011;10874;49.452;11.050;2024-01-30T09:42:49;18.67;;;12.43;;
21426;SDS011;10874;49.452;11.050;2024-01-30T09:45:23;16.93;;;11.83;;
21426;SDS011;10874;49.452;11.050;2024-01-30T09:47:50;16.43;;;11.93;;
21426;SDS011;10874;49.452;11.050;2024-01-30T09:50:18;15.93;;;12.33;;
21426;SDS011;10874;49.452;11.050;2024-01-30T09:52:48;20.93;;;12.63;;
21426;SDS011;10874;49.452;11.050;2024-01-30T09:55:16;14.27;;;12.07;;
21426;SDS011;10874;49.452;11.050;2024-01-30T09:57:43;18.90;;;12.30;;
21426;SDS011;10874;49.452;11.050;2024-01-30T10:00:10;15.40;;;11.00;;
21426;SDS011;10874;49.452;11.050;2024-01-30T10:02:39;14.83;;;11.77;;
21426;SDS011;10874;49.452;11.050;2024-01-30T10:05:06;15.93;;;11.13;;
21426;SDS011;10874;49.452;11.050;2024-01-30T10:07:32;18.77;;;11.90;;
21426;SDS011;10874;49.452;11.050;2024-01-30T10:10:00;19.53;;;11.90;;
21426;SDS011;10874;49.452;11.050;2024-01-30T10:12:26;18.67;;;10.60;;
21426;SDS011;10874;49.452;11.050;2024-01-30T10:14:55;14.77;;;11.07;;
21426;SDS011;10874;49.452;11.050;2024-01-30T10:17:24;16.13;;;10.77;;
21426;SDS011;10874;49.452;11.050;2024-01-30T10:19:59;19.27;;;10.63;;
21426;SDS011;10874;49.452;11.050;2024-01-30T10:22:26;18.20;;;11.13;;
21426;SDS011;10874;49.452;11.050;2024-01-30T10:24:53;14.93;;;10.20;;
21426;SDS011;10874;49.452;11.050;2024-01-30T10:27:25;14.53;;;10.70;;
21426;SDS011;10874;49.452;11.050;2024-01-30T10:29:52;16.37;;;11.87;;
21426;SDS011;10874;49.452;11.050;2024-01-30T10:32:19;15.83;;;11.30;;
21426;SDS011;10874;49.452;11.050;2024-01-30T10:34:46;17.70;;;11.87;;
21426;SDS011;10874;49.452;11.050;2024-01-30T10:37:13;17.43;;;10.93;;
21426;SDS011;10874;49.452;11.050;2024-01-30T10:39:43;16.53;;;10.23;;
21426;SDS011;10874;49.452;11.050;2024-01-30T10:42:15;13.17;;;10.33;;
21426;SDS011;10874;49.452;11.050;2024-01-30T10:47:29;16.60;;;10.80;;
21426;SDS011;10874;49.452;11.050;2024-01-30T10:49:56;15.93;;;11.10;;
21426;SDS011;10874;49.452;11.050;2024-01-30T10:52:24;14.97;;;11.23;;
21426;SDS011;10874;49.452;11.050;2024-01-30T10:54:56;16.30;;;9.83;;
21426;SDS011;10874;49.452;11.050;2024-01-30T10:57:23;11.37;;;10.03;;
21426;SDS011;10874;49.452;11.050;2024-01-30T10:59:55;11.93;;;10.13;;
21426;SDS011;10874;49.452;11.050;2024-01-30T11:02:23;14.73;;;10.37;;
21426;SDS011;10874;49.452;11.050;2024-01-30T11:04:54;15.00;;;10.73;;
21426;SDS011;10874;49.452;11.050;2024-01-30T11:07:25;14.40;;;10.23;;
21426;SDS011;10874;49.452;11.050;2024-01-30T11:09:53;15.73;;;10.63;;
21426;SDS011;10874;49.452;11.050;2024-01-30T11:12:24;11.97;;;10.03;;
21426;SDS011;10874;49.452;11.050;2024-01-30T11:15:07;15.83;;;10.70;;
21426;SDS011;10874;49.452;11.050;2024-01-30T11:20:20;14.00;;;10.63;;
21426;SDS011;10874;49.452;11.050;2024-01-30T11:22:47;13.27;;;10.67;;
21426;SDS011;10874;49.452;11.050;2024-01-30T11:25:15;15.03;;;11.13;;
21426;SDS011;10874;49.452;11.050;2024-01-30T11:27:42;13.47;;;10.23;;
21426;SDS011;10874;49.452;11.050;2024-01-30T11:30:10;14.23;;;10.43;;
21426;SDS011;10874;49.452;11.050;2024-01-30T11:32:37;12.23;;;9.97;;
21426;SDS011;10874;49.452;11.050;2024-01-30T11:35:04;12.50;;;9.77;;
21426;SDS011;10874;49.452;11.050;2024-01-30T11:37:33;13.20;;;10.30;;
21426;SDS011;10874;49.452;11.050;2024-01-30T11:40:03;14.43;;;10.20;;
21426;SDS011;10874;49.452;11.050;2024-01-30T11:42:30;12.00;;;10.40;;
21426;SDS011;10874;49.452;11.050;2024-01-30T11:44:59;12.47;;;9.87;;
21426;SDS011;10874;49.452;11.050;2024-01-30T11:47:26;15.97;;;11.10;;
21426;SDS011;10874;49.452;11.050;2024-01-30T11:49:53;12.97;;;10.47;;
21426;SDS011;10874;49.452;11.050;2024-01-30T11:52:23;14.03;;;10.53;;
21426;SDS011;10874;49.452;11.050;2024-01-30T11:54:50;16.70;;;11.03;;
21426;SDS011;10874;49.452;11.050;2024-01-30T11:57:17;14.17;;;10.80;;
21426;SDS011;10874;49.452;11.050;2024-01-30T11:59:44;12.13;;;10.10;;
21426;SDS011;10874;49.452;11.050;2024-01-30T12:02:15;14.73;;;10.67;;
21426;SDS011;10874;49.452;11.050;2024-01-30T12:04:42;13.23;;;10.53;;
21426;SDS011;10874;49.452;11.050;2024-01-30T12:07:09;13.10;;;10.63;;
21426;SDS011;10874;49.452;11.050;2024-01-30T12:09:38;12.20;;;10.30;;
21426;SDS011;10874;49.452;11.050;2024-01-30T12:12:06;13.57;;;9.57;;
21426;SDS011;10874;49.452;11.050;2024-01-30T12:14:33;13.77;;;9.80;;
21426;SDS011;10874;49.452;11.050;2024-01-30T12:17:00;14.93;;;10.10;;
21426;SDS011;10874;49.452;11.050;2024-01-30T12:19:27;11.63;;;10.00;;
21426;SDS011;10874;49.452;11.050;2024-01-30T12:21:54;18.00;;;10.40;;
21426;SDS011;10874;49.452;11.050;2024-01-30T12:24:22;12.70;;;10.23;;
21426;SDS011;10874;49.452;11.050;2024-01-30T12:26:51;12.77;;;9.87;;
21426;SDS011;10874;49.452;11.050;2024-01-30T12:29:19;13.10;;;9.77;;
21426;SDS011;10874;49.452;11.050;2024-01-30T12:31:47;13.67;;;9.67;;
21426;SDS011;10874;49.452;11.050;2024-01-30T12:34:14;14.13;;;9.07;;
21426;SDS011;10874;49.452;11.050;2024-01-30T12:36:43;11.37;;;9.77;;
21426;SDS011;10874;49.452;11.050;2024-01-30T12:39:11;14.57;;;9.90;;
21426;SDS011;10874;49.452;11.050;2024-01-30T12:41:38;12.23;;;9.63;;
21426;SDS011;10874;49.452;11.050;2024-01-30T12:44:05;13.30;;;9.67;;
21426;SDS011;10874;49.452;11.050;2024-01-30T12:46:31;12.27;;;8.90;;
21426;SDS011;10874;49.452;11.050;2024-01-30T12:49:00;10.27;;;8.90;;
21426;SDS011;10874;49.452;11.050;2024-01-30T12:51:27;12.53;;;9.03;;
21426;SDS011;10874;49.452;11.050;2024-01-30T12:53:54;13.97;;;9.63;;
21426;SDS011;10874;49.452;11.050;2024-01-30T12:56:21;11.93;;;9.30;;
21426;SDS011;10874;49.452;11.050;2024-01-30T12:58:47;13.37;;;9.37;;
21426;SDS011;10874;49.452;11.050;2024-01-30T13:01:18;12.47;;;9.63;;
21426;SDS011;10874;49.452;11.050;2024-01-30T13:03:45;14.60;;;10.40;;
21426;SDS011;10874;49.452;11.050;2024-01-30T13:06:12;14.07;;;8.97;;
21426;SDS011;10874;49.452;11.050;2024-01-30T13:08:39;12.47;;;10.03;;
21426;SDS011;10874;49.452;11.050;2024-01-30T13:11:06;12.43;;;9.23;;
21426;SDS011;10874;49.452;11.050;2024-01-30T13:13:41;10.80;;;9.10;;
21426;SDS011;10874;49.452;11.050;2024-01-30T13:16:07;14.87;;;9.90;;
21426;SDS011;10874;49.452;11.050;2024-01-30T13:18:35;12.37;;;9.07;;
21426;SDS011;10874;49.452;11.050;2024-01-30T13:21:04;12.87;;;9.63;;
21426;SDS011;10874;49.452;11.050;2024-01-30T13:23:31;11.60;;;9.50;;
21426;SDS011;10874;49.452;11.050;2024-01-30T13:25:57;11.40;;;8.77;;
21426;SDS011;10874;49.452;11.050;2024-01-30T13:28:25;15.17;;;10.30;;
21426;SDS011;10874;49.452;11.050;2024-01-30T13:30:52;9.90;;;8.50;;
21426;SDS011;10874;49.452;11.050;2024-01-30T13:33:19;12.10;;;8.97;;
21426;SDS011;10874;49.452;11.050;2024-01-30T13:35:46;13.87;;;8.87;;
21426;SDS011;10874;49.452;11.050;2024-01-30T13:38:13;12.97;;;8.37;;
21426;SDS011;10874;49.452;11.050;2024-01-30T13:40:40;11.83;;;9.40;;
21426;SDS011;10874;49.452;11.050;2024-01-30T13:43:07;11.87;;;9.50;;
21426;SDS011;10874;49.452;11.050;2024-01-30T13:45:34;11.07;;;9.37;;
21426;SDS011;10874;49.452;11.050;2024-01-30T13:48:01;12.87;;;9.73;;
21426;SDS011;10874;49.452;11.050;2024-01-30T13:50:29;12.20;;;9.77;;
21426;SDS011;10874;49.452;11.050;2024-01-30T13:52:57;12.23;;;9.67;;
21426;SDS011;10874;49.452;11.050;2024-01-30T13:55:24;14.53;;;9.73;;
21426;SDS011;10874;49.452;11.050;2024-01-30T13:57:51;12.13;;;9.77;;
21426;SDS011;10874;49.452;11.050;2024-01-30T14:00:18;13.00;;;9.47;;
21426;SDS011;10874;49.452;11.050;2024-01-30T14:02:46;15.83;;;10.23;;
21426;SDS011;10874;49.452;11.050;2024-01-30T14:05:13;14.00;;;9.60;;
21426;SDS011;10874;49.452;11.050;2024-01-30T14:07:41;13.63;;;10.63;;
21426;SDS011;10874;49.452;11.050;2024-01-30T14:10:10;11.27;;;9.30;;
21426;SDS011;10874;49.452;11.050;2024-01-30T14:12:41;14.00;;;9.87;;
21426;SDS011;10874;49.452;11.050;2024-01-30T14:15:09;11.93;;;9.53;;
21426;SDS011;10874;49.452;11.050;2024-01-30T14:17:53;14.50;;;10.63;;
21426;SDS011;10874;49.452;11.050;2024-01-30T14:20:20;12.37;;;9.90;;
21426;SDS011;10874;49.452;11.050;2024-01-30T14:22:47;11.37;;;9.60;;
21426;SDS011;10874;49.452;11.050;2024-01-30T14:25:14;14.33;;;10.70;;
21426;SDS011;10874;49.452;11.050;2024-01-30T14:27:42;15.10;;;9.80;;